You are not logged in, Click here to log in
溫哥華國際機場YVR / CYVR 加拿大英屬哥倫比亞省列治文海島
ICAO: CYVR Country: 加拿大英屬哥倫比亞省列治文海島
Latitude: 49.1967 Longitude: -123.182
Total Arrivals: 6 Total Departures: 10
Latest Arrival: AA1264W (KLAX-CYVR)CHUANYI. Lin Latest Departure: AC538 (CYVR-PANC)CHUANYI. Lin
Scenery:
METAR : CYVR 092100Z 18004KT 150V220 20SM SCT020 SCT036 BKN260 07/05 A3024 RMK SC3SC1CI2 SLP241

溫哥華國際機場YVR

You are accessing this site from IP address 35.170.81.210. Virtual Airline. CMS by phpVMS.Website designed by Zumeweb and edited by Theo Bearman.
There is 0 User(s) Online: | and 7 Guest(s) Online.
All information on this site is for fight simulation purposes only. This site is for flight logging for pilots of Virtual Airline&模擬飛行論壇 FlySim only.